sensor_id;sensor_type;location;lat;lon;timestamp;P1;durP1;ratioP1;P2;durP2;ratioP2
52554;SDS011;38455;52.710;6.502;2022-12-29T00:02:11;7.45;;;4.55;;
52554;SDS011;38455;52.710;6.502;2022-12-29T00:04:37;7.90;;;4.78;;
52554;SDS011;38455;52.710;6.502;2022-12-29T00:07:03;6.63;;;4.10;;
52554;SDS011;38455;52.710;6.502;2022-12-29T00:09:29;8.50;;;4.65;;
52554;SDS011;38455;52.710;6.502;2022-12-29T00:11:55;5.72;;;4.60;;
52554;SDS011;38455;52.710;6.502;2022-12-29T00:14:21;8.65;;;4.70;;
52554;SDS011;38455;52.710;6.502;2022-12-29T00:17:05;7.93;;;4.70;;
52554;SDS011;38455;52.710;6.502;2022-12-29T00:19:31;6.28;;;4.40;;
52554;SDS011;38455;52.710;6.502;2022-12-29T00:22:16;8.93;;;4.72;;
52554;SDS011;38455;52.710;6.502;2022-12-29T00:25:00;7.72;;;4.85;;
52554;SDS011;38455;52.710;6.502;2022-12-29T00:27:44;6.75;;;4.75;;
52554;SDS011;38455;52.710;6.502;2022-12-29T00:30:29;5.47;;;4.53;;
52554;SDS011;38455;52.710;6.502;2022-12-29T00:33:16;5.28;;;4.13;;
52554;SDS011;38455;52.710;6.502;2022-12-29T00:36:04;5.63;;;3.95;;
52554;SDS011;38455;52.710;6.502;2022-12-29T00:38:37;5.13;;;3.70;;
52554;SDS011;38455;52.710;6.502;2022-12-29T00:41:24;7.13;;;4.30;;
52554;SDS011;38455;52.710;6.502;2022-12-29T00:44:09;9.82;;;4.30;;
52554;SDS011;38455;52.710;6.502;2022-12-29T00:46:44;5.25;;;3.97;;
52554;SDS011;38455;52.710;6.502;2022-12-29T00:49:11;5.93;;;4.00;;
52554;SDS011;38455;52.710;6.502;2022-12-29T00:52:04;5.50;;;3.42;;
52554;SDS011;38455;52.710;6.502;2022-12-29T00:54:37;4.20;;;3.15;;
52554;SDS011;38455;52.710;6.502;2022-12-29T00:57:05;5.80;;;3.58;;
52554;SDS011;38455;52.710;6.502;2022-12-29T00:59:32;5.97;;;3.60;;
52554;SDS011;38455;52.710;6.502;2022-12-29T01:01:59;10.63;;;3.78;;
52554;SDS011;38455;52.710;6.502;2022-12-29T01:04:25;4.03;;;3.03;;
52554;SDS011;38455;52.710;6.502;2022-12-29T01:06:51;4.10;;;3.35;;
52554;SDS011;38455;52.710;6.502;2022-12-29T01:09:17;3.97;;;3.00;;
52554;SDS011;38455;52.710;6.502;2022-12-29T01:12:03;3.88;;;2.97;;
52554;SDS011;38455;52.710;6.502;2022-12-29T01:14:30;4.65;;;2.78;;
52554;SDS011;38455;52.710;6.502;2022-12-29T01:16:56;4.00;;;3.08;;
52554;SDS011;38455;52.710;6.502;2022-12-29T01:19:22;5.03;;;3.03;;
52554;SDS011;38455;52.710;6.502;2022-12-29T01:21:48;4.53;;;2.50;;
52554;SDS011;38455;52.710;6.502;2022-12-29T01:24:15;5.63;;;3.10;;
52554;SDS011;38455;52.710;6.502;2022-12-29T01:26:41;5.68;;;3.28;;
52554;SDS011;38455;52.710;6.502;2022-12-29T01:29:07;7.15;;;3.03;;
52554;SDS011;38455;52.710;6.502;2022-12-29T01:31:33;5.38;;;3.05;;
52554;SDS011;38455;52.710;6.502;2022-12-29T01:33:58;3.97;;;2.67;;
52554;SDS011;38455;52.710;6.502;2022-12-29T01:36:24;5.75;;;3.20;;
52554;SDS011;38455;52.710;6.502;2022-12-29T01:38:50;5.13;;;3.20;;
52554;SDS011;38455;52.710;6.502;2022-12-29T01:41:16;4.07;;;3.15;;
52554;SDS011;38455;52.710;6.502;2022-12-29T01:43:46;3.38;;;2.80;;
52554;SDS011;38455;52.710;6.502;2022-12-29T01:46:34;3.75;;;3.20;;
52554;SDS011;38455;52.710;6.502;2022-12-29T01:51:29;4.38;;;3.22;;
52554;SDS011;38455;52.710;6.502;2022-12-29T01:53:58;4.22;;;2.58;;
52554;SDS011;38455;52.710;6.502;2022-12-29T01:56:26;4.65;;;2.53;;
52554;SDS011;38455;52.710;6.502;2022-12-29T01:58:55;3.33;;;2.50;;
52554;SDS011;38455;52.710;6.502;2022-12-29T02:01:26;4.88;;;2.40;;
52554;SDS011;38455;52.710;6.502;2022-12-29T02:03:51;4.70;;;2.60;;
52554;SDS011;38455;52.710;6.502;2022-12-29T02:06:19;2.92;;;2.28;;
52554;SDS011;38455;52.710;6.502;2022-12-29T02:08:49;3.22;;;2.22;;
52554;SDS011;38455;52.710;6.502;2022-12-29T02:11:18;3.22;;;2.40;;
52554;SDS011;38455;52.710;6.502;2022-12-29T02:13:46;3.90;;;2.30;;
52554;SDS011;38455;52.710;6.502;2022-12-29T02:16:21;4.28;;;2.72;;
52554;SDS011;38455;52.710;6.502;2022-12-29T02:21:41;5.43;;;2.65;;
52554;SDS011;38455;52.710;6.502;2022-12-29T02:33:37;5.45;;;2.55;;
52554;SDS011;38455;52.710;6.502;2022-12-29T02:41:44;4.35;;;2.60;;
52554;SDS011;38455;52.710;6.502;2022-12-29T02:44:14;3.97;;;2.22;;
52554;SDS011;38455;52.710;6.502;2022-12-29T02:49:38;4.32;;;2.65;;
52554;SDS011;38455;52.710;6.502;2022-12-29T02:52:16;4.97;;;2.70;;
52554;SDS011;38455;52.710;6.502;2022-12-29T02:54:48;3.65;;;2.25;;
52554;SDS011;38455;52.710;6.502;2022-12-29T02:57:15;3.95;;;2.50;;
52554;SDS011;38455;52.710;6.502;2022-12-29T03:00:00;4.25;;;2.47;;
52554;SDS011;38455;52.710;6.502;2022-12-29T03:13:12;3.60;;;2.10;;
52554;SDS011;38455;52.710;6.502;2022-12-29T03:24:38;2.85;;;1.73;;
52554;SDS011;38455;52.710;6.502;2022-12-29T03:27:09;4.60;;;2.05;;
52554;SDS011;38455;52.710;6.502;2022-12-29T03:29:43;3.88;;;2.15;;
52554;SDS011;38455;52.710;6.502;2022-12-29T03:32:17;2.60;;;1.90;;
52554;SDS011;38455;52.710;6.502;2022-12-29T03:34:45;2.88;;;2.00;;
52554;SDS011;38455;52.710;6.502;2022-12-29T03:37:15;4.53;;;1.77;;
52554;SDS011;38455;52.710;6.502;2022-12-29T03:39:45;2.22;;;1.40;;
52554;SDS011;38455;52.710;6.502;2022-12-29T03:42:13;4.57;;;1.40;;
52554;SDS011;38455;52.710;6.502;2022-12-29T03:44:43;5.03;;;1.90;;
52554;SDS011;38455;52.710;6.502;2022-12-29T03:47:10;3.05;;;1.27;;
52554;SDS011;38455;52.710;6.502;2022-12-29T03:49:37;5.50;;;1.50;;
52554;SDS011;38455;52.710;6.502;2022-12-29T03:52:03;5.85;;;1.63;;
52554;SDS011;38455;52.710;6.502;2022-12-29T03:54:30;3.90;;;1.50;;
52554;SDS011;38455;52.710;6.502;2022-12-29T03:56:56;3.47;;;1.30;;
52554;SDS011;38455;52.710;6.502;2022-12-29T03:59:22;7.25;;;1.48;;
52554;SDS011;38455;52.710;6.502;2022-12-29T04:01:47;2.90;;;1.58;;
52554;SDS011;38455;52.710;6.502;2022-12-29T04:04:13;2.30;;;1.10;;
52554;SDS011;38455;52.710;6.502;2022-12-29T04:06:39;6.70;;;1.35;;
52554;SDS011;38455;52.710;6.502;2022-12-29T04:09:04;4.13;;;1.20;;
52554;SDS011;38455;52.710;6.502;2022-12-29T04:11:30;7.57;;;1.48;;
52554;SDS011;38455;52.710;6.502;2022-12-29T04:13:56;5.85;;;1.33;;
52554;SDS011;38455;52.710;6.502;2022-12-29T04:16:22;3.60;;;1.15;;
52554;SDS011;38455;52.710;6.502;2022-12-29T04:18:47;2.25;;;0.77;;
52554;SDS011;38455;52.710;6.502;2022-12-29T04:21:13;3.75;;;1.15;;
52554;SDS011;38455;52.710;6.502;2022-12-29T04:23:39;4.50;;;1.13;;
52554;SDS011;38455;52.710;6.502;2022-12-29T04:26:05;3.08;;;0.98;;
52554;SDS011;38455;52.710;6.502;2022-12-29T04:28:32;3.90;;;0.90;;
52554;SDS011;38455;52.710;6.502;2022-12-29T04:30:58;4.28;;;0.95;;
52554;SDS011;38455;52.710;6.502;2022-12-29T04:33:24;6.32;;;1.40;;
52554;SDS011;38455;52.710;6.502;2022-12-29T04:35:50;8.35;;;1.50;;
52554;SDS011;38455;52.710;6.502;2022-12-29T04:38:18;3.40;;;1.10;;
52554;SDS011;38455;52.710;6.502;2022-12-29T04:40:43;4.80;;;1.00;;
52554;SDS011;38455;52.710;6.502;2022-12-29T04:43:09;8.43;;;1.23;;
52554;SDS011;38455;52.710;6.502;2022-12-29T04:45:35;3.30;;;0.90;;
52554;SDS011;38455;52.710;6.502;2022-12-29T04:48:01;3.63;;;1.08;;
52554;SDS011;38455;52.710;6.502;2022-12-29T04:50:26;6.75;;;0.90;;
52554;SDS011;38455;52.710;6.502;2022-12-29T04:52:52;4.18;;;1.30;;
52554;SDS011;38455;52.710;6.502;2022-12-29T04:55:18;5.93;;;1.58;;
52554;SDS011;38455;52.710;6.502;2022-12-29T04:57:44;3.35;;;1.27;;
52554;SDS011;38455;52.710;6.502;2022-12-29T05:00:10;4.95;;;0.90;;
52554;SDS011;38455;52.710;6.502;2022-12-29T05:02:36;6.93;;;1.00;;
52554;SDS011;38455;52.710;6.502;2022-12-29T05:05:03;6.85;;;1.02;;
52554;SDS011;38455;52.710;6.502;2022-12-29T05:07:29;5.03;;;1.23;;
52554;SDS011;38455;52.710;6.502;2022-12-29T05:09:55;4.97;;;0.95;;
52554;SDS011;38455;52.710;6.502;2022-12-29T05:12:20;6.70;;;1.35;;
52554;SDS011;38455;52.710;6.502;2022-12-29T05:14:46;4.25;;;1.20;;
52554;SDS011;38455;52.710;6.502;2022-12-29T05:17:12;5.88;;;1.20;;
52554;SDS011;38455;52.710;6.502;2022-12-29T05:19:37;7.75;;;1.30;;
52554;SDS011;38455;52.710;6.502;2022-12-29T05:22:03;3.50;;;1.23;;
52554;SDS011;38455;52.710;6.502;2022-12-29T05:24:29;5.28;;;1.60;;
52554;SDS011;38455;52.710;6.502;2022-12-29T05:26:55;5.18;;;1.20;;
52554;SDS011;38455;52.710;6.502;2022-12-29T05:29:20;6.47;;;1.40;;
52554;SDS011;38455;52.710;6.502;2022-12-29T05:31:46;7.57;;;1.63;;
52554;SDS011;38455;52.710;6.502;2022-12-29T05:34:11;3.90;;;1.35;;
52554;SDS011;38455;52.710;6.502;2022-12-29T05:36:37;7.72;;;1.92;;
52554;SDS011;38455;52.710;6.502;2022-12-29T05:39:03;6.85;;;1.70;;
52554;SDS011;38455;52.710;6.502;2022-12-29T05:41:29;3.33;;;1.30;;
52554;SDS011;38455;52.710;6.502;2022-12-29T05:43:55;5.97;;;1.70;;
52554;SDS011;38455;52.710;6.502;2022-12-29T05:46:20;4.43;;;1.35;;
52554;SDS011;38455;52.710;6.502;2022-12-29T05:48:46;7.15;;;1.55;;
52554;SDS011;38455;52.710;6.502;2022-12-29T05:51:12;4.65;;;1.20;;
52554;SDS011;38455;52.710;6.502;2022-12-29T05:53:37;7.25;;;2.30;;
52554;SDS011;38455;52.710;6.502;2022-12-29T05:56:03;5.80;;;1.33;;
52554;SDS011;38455;52.710;6.502;2022-12-29T05:58:28;5.53;;;1.15;;
52554;SDS011;38455;52.710;6.502;2022-12-29T06:00:54;5.15;;;1.27;;
52554;SDS011;38455;52.710;6.502;2022-12-29T06:03:20;8.77;;;2.05;;
52554;SDS011;38455;52.710;6.502;2022-12-29T06:05:46;6.97;;;1.70;;
52554;SDS011;38455;52.710;6.502;2022-12-29T06:08:11;7.75;;;2.13;;
52554;SDS011;38455;52.710;6.502;2022-12-29T06:10:37;8.82;;;2.08;;
52554;SDS011;38455;52.710;6.502;2022-12-29T06:13:03;9.52;;;2.05;;
52554;SDS011;38455;52.710;6.502;2022-12-29T06:15:30;8.07;;;2.30;;
52554;SDS011;38455;52.710;6.502;2022-12-29T06:17:57;4.97;;;1.42;;
52554;SDS011;38455;52.710;6.502;2022-12-29T06:20:23;6.32;;;1.25;;
52554;SDS011;38455;52.710;6.502;2022-12-29T06:22:49;3.58;;;1.00;;
52554;SDS011;38455;52.710;6.502;2022-12-29T06:25:14;5.03;;;1.52;;
52554;SDS011;38455;52.710;6.502;2022-12-29T06:27:40;4.55;;;1.48;;
52554;SDS011;38455;52.710;6.502;2022-12-29T06:30:06;5.65;;;1.38;;
52554;SDS011;38455;52.710;6.502;2022-12-29T06:32:34;6.30;;;1.20;;
52554;SDS011;38455;52.710;6.502;2022-12-29T06:35:00;4.88;;;1.13;;
52554;SDS011;38455;52.710;6.502;2022-12-29T06:37:26;11.20;;;1.77;;
52554;SDS011;38455;52.710;6.502;2022-12-29T06:39:52;8.57;;;1.90;;
52554;SDS011;38455;52.710;6.502;2022-12-29T06:42:17;10.60;;;1.63;;
52554;SDS011;38455;52.710;6.502;2022-12-29T06:44:43;8.85;;;1.73;;
52554;SDS011;38455;52.710;6.502;2022-12-29T06:47:09;6.82;;;1.60;;
52554;SDS011;38455;52.710;6.502;2022-12-29T06:49:34;25.33;;;4.25;;
52554;SDS011;38455;52.710;6.502;2022-12-29T06:52:00;9.50;;;1.83;;
52554;SDS011;38455;52.710;6.502;2022-12-29T06:54:29;7.88;;;1.55;;
52554;SDS011;38455;52.710;6.502;2022-12-29T06:56:55;19.50;;;1.95;;
52554;SDS011;38455;52.710;6.502;2022-12-29T06:59:20;7.10;;;1.65;;
52554;SDS011;38455;52.710;6.502;2022-12-29T07:01:46;11.00;;;1.98;;
52554;SDS011;38455;52.710;6.502;2022-12-29T07:04:12;9.57;;;2.03;;
52554;SDS011;38455;52.710;6.502;2022-12-29T07:06:38;8.43;;;1.65;;
52554;SDS011;38455;52.710;6.502;2022-12-29T07:09:05;10.82;;;2.08;;
52554;SDS011;38455;52.710;6.502;2022-12-29T07:11:32;16.35;;;1.83;;
52554;SDS011;38455;52.710;6.502;2022-12-29T07:13:58;11.27;;;1.85;;
52554;SDS011;38455;52.710;6.502;2022-12-29T07:16:23;12.30;;;2.15;;
52554;SDS011;38455;52.710;6.502;2022-12-29T07:18:49;7.20;;;1.75;;
52554;SDS011;38455;52.710;6.502;2022-12-29T07:21:15;14.32;;;3.10;;
52554;SDS011;38455;52.710;6.502;2022-12-29T07:23:41;14.23;;;3.08;;
52554;SDS011;38455;52.710;6.502;2022-12-29T07:26:07;14.00;;;2.42;;
52554;SDS011;38455;52.710;6.502;2022-12-29T07:28:35;8.38;;;2.17;;
52554;SDS011;38455;52.710;6.502;2022-12-29T07:31:03;10.10;;;1.67;;
52554;SDS011;38455;52.710;6.502;2022-12-29T07:33:28;9.65;;;1.95;;
52554;SDS011;38455;52.710;6.502;2022-12-29T07:35:55;6.88;;;1.60;;
52554;SDS011;38455;52.710;6.502;2022-12-29T07:38:21;9.35;;;2.28;;
52554;SDS011;38455;52.710;6.502;2022-12-29T07:40:47;9.10;;;1.83;;
52554;SDS011;38455;52.710;6.502;2022-12-29T07:43:12;9.95;;;2.80;;
52554;SDS011;38455;52.710;6.502;2022-12-29T07:45:38;15.60;;;2.05;;
52554;SDS011;38455;52.710;6.502;2022-12-29T07:48:04;9.82;;;1.58;;
52554;SDS011;38455;52.710;6.502;2022-12-29T07:50:33;11.45;;;2.15;;
52554;SDS011;38455;52.710;6.502;2022-12-29T07:52:59;10.05;;;2.58;;
52554;SDS011;38455;52.710;6.502;2022-12-29T07:55:25;11.32;;;2.33;;
52554;SDS011;38455;52.710;6.502;2022-12-29T07:57:52;9.93;;;2.15;;
52554;SDS011;38455;52.710;6.502;2022-12-29T08:00:18;13.77;;;1.90;;
52554;SDS011;38455;52.710;6.502;2022-12-29T08:02:44;9.95;;;2.20;;
52554;SDS011;38455;52.710;6.502;2022-12-29T08:05:10;14.57;;;2.10;;
52554;SDS011;38455;52.710;6.502;2022-12-29T08:07:36;9.68;;;2.47;;
52554;SDS011;38455;52.710;6.502;2022-12-29T08:10:01;11.98;;;2.17;;
52554;SDS011;38455;52.710;6.502;2022-12-29T08:12:27;18.23;;;4.05;;
52554;SDS011;38455;52.710;6.502;2022-12-29T08:14:53;10.45;;;2.03;;
52554;SDS011;38455;52.710;6.502;2022-12-29T08:17:18;13.63;;;2.35;;
52554;SDS011;38455;52.710;6.502;2022-12-29T08:19:44;15.07;;;3.13;;
52554;SDS011;38455;52.710;6.502;2022-12-29T08:22:10;17.65;;;2.28;;
52554;SDS011;38455;52.710;6.502;2022-12-29T08:24:35;12.82;;;2.65;;
52554;SDS011;38455;52.710;6.502;2022-12-29T08:27:01;15.95;;;3.58;;
52554;SDS011;38455;52.710;6.502;2022-12-29T08:29:27;13.20;;;2.85;;
52554;SDS011;38455;52.710;6.502;2022-12-29T08:31:52;7.57;;;2.10;;
52554;SDS011;38455;52.710;6.502;2022-12-29T08:34:18;12.70;;;2.15;;
52554;SDS011;38455;52.710;6.502;2022-12-29T08:36:43;12.00;;;2.30;;
52554;SDS011;38455;52.710;6.502;2022-12-29T08:39:09;7.30;;;1.70;;
52554;SDS011;38455;52.710;6.502;2022-12-29T08:41:35;13.48;;;2.45;;
52554;SDS011;38455;52.710;6.502;2022-12-29T08:44:00;5.70;;;1.90;;
52554;SDS011;38455;52.710;6.502;2022-12-29T08:46:26;9.68;;;1.85;;
52554;SDS011;38455;52.710;6.502;2022-12-29T08:48:52;6.75;;;1.88;;
52554;SDS011;38455;52.710;6.502;2022-12-29T08:51:18;10.18;;;2.22;;
52554;SDS011;38455;52.710;6.502;2022-12-29T08:53:43;9.20;;;1.98;;
52554;SDS011;38455;52.710;6.502;2022-12-29T08:56:09;7.95;;;2.22;;
52554;SDS011;38455;52.710;6.502;2022-12-29T08:58:36;10.02;;;1.98;;
52554;SDS011;38455;52.710;6.502;2022-12-29T09:01:02;11.48;;;2.13;;
52554;SDS011;38455;52.710;6.502;2022-12-29T09:03:28;7.05;;;1.77;;
52554;SDS011;38455;52.710;6.502;2022-12-29T09:05:54;10.63;;;2.22;;
52554;SDS011;38455;52.710;6.502;2022-12-29T09:08:20;13.55;;;2.15;;
52554;SDS011;38455;52.710;6.502;2022-12-29T09:10:47;8.02;;;1.98;;
52554;SDS011;38455;52.710;6.502;2022-12-29T09:13:12;10.00;;;2.60;;
52554;SDS011;38455;52.710;6.502;2022-12-29T09:15:39;8.30;;;2.38;;
52554;SDS011;38455;52.710;6.502;2022-12-29T09:18:05;11.40;;;2.17;;
52554;SDS011;38455;52.710;6.502;2022-12-29T09:20:32;17.85;;;2.25;;
52554;SDS011;38455;52.710;6.502;2022-12-29T09:22:58;9.77;;;2.05;;
52554;SDS011;38455;52.710;6.502;2022-12-29T09:25:25;8.75;;;2.78;;
52554;SDS011;38455;52.710;6.502;2022-12-29T09:27:51;5.57;;;1.98;;
52554;SDS011;38455;52.710;6.502;2022-12-29T09:30:21;11.63;;;1.80;;
52554;SDS011;38455;52.710;6.502;2022-12-29T09:32:48;11.40;;;2.35;;
52554;SDS011;38455;52.710;6.502;2022-12-29T09:35:14;7.63;;;1.75;;
52554;SDS011;38455;52.710;6.502;2022-12-29T09:37:41;9.35;;;2.17;;
52554;SDS011;38455;52.710;6.502;2022-12-29T09:40:07;5.30;;;1.65;;
52554;SDS011;38455;52.710;6.502;2022-12-29T09:42:49;16.85;;;3.58;;
52554;SDS011;38455;52.710;6.502;2022-12-29T09:45:44;14.43;;;2.35;;
52554;SDS011;38455;52.710;6.502;2022-12-29T09:48:16;11.57;;;2.53;;
52554;SDS011;38455;52.710;6.502;2022-12-29T09:50:48;11.80;;;3.17;;
52554;SDS011;38455;52.710;6.502;2022-12-29T09:55:56;8.88;;;2.17;;
52554;SDS011;38455;52.710;6.502;2022-12-29T10:01:13;11.00;;;2.08;;
52554;SDS011;38455;52.710;6.502;2022-12-29T10:03:53;11.65;;;1.92;;
52554;SDS011;38455;52.710;6.502;2022-12-29T10:06:22;5.43;;;1.58;;
52554;SDS011;38455;52.710;6.502;2022-12-29T10:23:32;10.18;;;1.90;;
52554;SDS011;38455;52.710;6.502;2022-12-29T10:26:18;11.93;;;2.28;;
52554;SDS011;38455;52.710;6.502;2022-12-29T10:31:21;9.85;;;2.00;;
52554;SDS011;38455;52.710;6.502;2022-12-29T10:33:54;11.07;;;2.30;;
52554;SDS011;38455;52.710;6.502;2022-12-29T10:36:38;13.63;;;2.08;;
52554;SDS011;38455;52.710;6.502;2022-12-29T10:41:53;7.70;;;2.35;;
52554;SDS011;38455;52.710;6.502;2022-12-29T10:44:41;11.70;;;2.50;;
52554;SDS011;38455;52.710;6.502;2022-12-29T10:47:09;10.80;;;2.20;;
52554;SDS011;38455;52.710;6.502;2022-12-29T10:49:40;12.48;;;2.40;;
52554;SDS011;38455;52.710;6.502;2022-12-29T10:52:07;12.05;;;2.30;;
52554;SDS011;38455;52.710;6.502;2022-12-29T10:54:49;8.20;;;2.17;;
52554;SDS011;38455;52.710;6.502;2022-12-29T10:59:52;8.07;;;1.55;;
52554;SDS011;38455;52.710;6.502;2022-12-29T11:02:42;7.63;;;1.85;;
52554;SDS011;38455;52.710;6.502;2022-12-29T11:05:20;8.93;;;1.95;;
52554;SDS011;38455;52.710;6.502;2022-12-29T11:08:10;9.90;;;2.03;;
52554;SDS011;38455;52.710;6.502;2022-12-29T11:10:40;9.13;;;1.83;;
52554;SDS011;38455;52.710;6.502;2022-12-29T11:13:18;15.35;;;1.95;;
52554;SDS011;38455;52.710;6.502;2022-12-29T11:15:50;6.25;;;1.85;;
52554;SDS011;38455;52.710;6.502;2022-12-29T11:21:03;7.93;;;2.67;;
52554;SDS011;38455;52.710;6.502;2022-12-29T11:23:35;16.13;;;4.10;;
52554;SDS011;38455;52.710;6.502;2022-12-29T11:26:17;11.52;;;2.20;;
52554;SDS011;38455;52.710;6.502;2022-12-29T11:29:05;11.57;;;2.28;;
52554;SDS011;38455;52.710;6.502;2022-12-29T11:31:45;8.52;;;2.42;;
52554;SDS011;38455;52.710;6.502;2022-12-29T11:34:23;10.82;;;1.85;;
52554;SDS011;38455;52.710;6.502;2022-12-29T11:36:51;11.43;;;3.50;;
52554;SDS011;38455;52.710;6.502;2022-12-29T11:42:18;14.35;;;3.13;;
52554;SDS011;38455;52.710;6.502;2022-12-29T11:44:47;16.65;;;3.25;;
52554;SDS011;38455;52.710;6.502;2022-12-29T11:49:51;11.55;;;2.65;;
52554;SDS011;38455;52.710;6.502;2022-12-29T11:52:23;12.32;;;2.83;;
52554;SDS011;38455;52.710;6.502;2022-12-29T11:54:51;10.35;;;2.22;;
52554;SDS011;38455;52.710;6.502;2022-12-29T11:57:18;18.08;;;4.22;;
52554;SDS011;38455;52.710;6.502;2022-12-29T11:59:50;19.90;;;3.92;;
52554;SDS011;38455;52.710;6.502;2022-12-29T12:04:45;9.10;;;2.17;;
52554;SDS011;38455;52.710;6.502;2022-12-29T12:07:59;10.85;;;2.20;;
52554;SDS011;38455;52.710;6.502;2022-12-29T12:10:17;11.90;;;2.35;;
52554;SDS011;38455;52.710;6.502;2022-12-29T12:12:50;16.33;;;2.58;;
52554;SDS011;38455;52.710;6.502;2022-12-29T12:15:50;14.70;;;3.15;;
52554;SDS011;38455;52.710;6.502;2022-12-29T12:18:40;11.75;;;2.80;;
52554;SDS011;38455;52.710;6.502;2022-12-29T12:21:17;13.95;;;2.72;;
52554;SDS011;38455;52.710;6.502;2022-12-29T12:24:07;12.68;;;2.90;;
52554;SDS011;38455;52.710;6.502;2022-12-29T12:49:45;15.88;;;3.17;;
52554;SDS011;38455;52.710;6.502;2022-12-29T13:00:09;16.50;;;3.17;;
52554;SDS011;38455;52.710;6.502;2022-12-29T13:25:01;13.82;;;2.40;;
52554;SDS011;38455;52.710;6.502;2022-12-29T13:27:42;13.75;;;3.05;;
52554;SDS011;38455;52.710;6.502;2022-12-29T13:30:32;16.45;;;3.60;;
52554;SDS011;38455;52.710;6.502;2022-12-29T13:33:31;13.02;;;3.20;;
52554;SDS011;38455;52.710;6.502;2022-12-29T13:36:03;12.85;;;3.38;;
52554;SDS011;38455;52.710;6.502;2022-12-29T13:38:39;14.32;;;2.85;;
52554;SDS011;38455;52.710;6.502;2022-12-29T13:41:16;13.95;;;2.88;;
52554;SDS011;38455;52.710;6.502;2022-12-29T13:43:46;17.52;;;3.38;;
52554;SDS011;38455;52.710;6.502;2022-12-29T13:46:16;17.23;;;3.97;;
52554;SDS011;38455;52.710;6.502;2022-12-29T13:48:54;12.40;;;2.88;;
52554;SDS011;38455;52.710;6.502;2022-12-29T13:51:29;15.43;;;2.97;;
52554;SDS011;38455;52.710;6.502;2022-12-29T13:56:44;14.50;;;3.58;;
52554;SDS011;38455;52.710;6.502;2022-12-29T14:07:42;14.88;;;3.28;;
52554;SDS011;38455;52.710;6.502;2022-12-29T14:13:12;12.65;;;2.95;;
52554;SDS011;38455;52.710;6.502;2022-12-29T14:15:40;13.68;;;2.47;;
52554;SDS011;38455;52.710;6.502;2022-12-29T14:18:18;10.70;;;2.95;;
52554;SDS011;38455;52.710;6.502;2022-12-29T14:20:49;16.05;;;3.25;;
52554;SDS011;38455;52.710;6.502;2022-12-29T14:28:32;12.02;;;2.92;;
52554;SDS011;38455;52.710;6.502;2022-12-29T14:31:02;15.40;;;3.05;;
52554;SDS011;38455;52.710;6.502;2022-12-29T14:33:30;11.80;;;2.95;;
52554;SDS011;38455;52.710;6.502;2022-12-29T14:38:45;22.17;;;3.10;;
52554;SDS011;38455;52.710;6.502;2022-12-29T14:41:16;19.70;;;3.70;;
52554;SDS011;38455;52.710;6.502;2022-12-29T14:49:22;11.50;;;2.25;;
52554;SDS011;38455;52.710;6.502;2022-12-29T14:54:44;13.77;;;3.55;;
52554;SDS011;38455;52.710;6.502;2022-12-29T14:57:27;14.07;;;3.17;;
52554;SDS011;38455;52.710;6.502;2022-12-29T15:00:18;15.40;;;3.47;;
52554;SDS011;38455;52.710;6.502;2022-12-29T15:02:50;15.55;;;2.67;;
52554;SDS011;38455;52.710;6.502;2022-12-29T15:08:12;16.45;;;2.85;;
52554;SDS011;38455;52.710;6.502;2022-12-29T15:10:45;12.88;;;2.72;;
52554;SDS011;38455;52.710;6.502;2022-12-29T15:13:18;11.82;;;2.97;;
52554;SDS011;38455;52.710;6.502;2022-12-29T15:15:47;14.77;;;3.70;;
52554;SDS011;38455;52.710;6.502;2022-12-29T15:18:24;13.60;;;2.75;;
52554;SDS011;38455;52.710;6.502;2022-12-29T15:21:00;16.08;;;3.25;;
52554;SDS011;38455;52.710;6.502;2022-12-29T15:23:27;15.50;;;2.80;;
52554;SDS011;38455;52.710;6.502;2022-12-29T15:25:58;12.70;;;3.00;;
52554;SDS011;38455;52.710;6.502;2022-12-29T15:28:24;14.18;;;2.63;;
52554;SDS011;38455;52.710;6.502;2022-12-29T15:30:55;12.00;;;3.20;;
52554;SDS011;38455;52.710;6.502;2022-12-29T15:33:29;19.17;;;3.50;;
52554;SDS011;38455;52.710;6.502;2022-12-29T15:35:55;16.58;;;2.78;;
52554;SDS011;38455;52.710;6.502;2022-12-29T15:38:28;16.80;;;3.58;;
52554;SDS011;38455;52.710;6.502;2022-12-29T15:40:56;16.77;;;2.65;;
52554;SDS011;38455;52.710;6.502;2022-12-29T15:46:35;7.82;;;2.83;;
52554;SDS011;38455;52.710;6.502;2022-12-29T15:49:04;13.68;;;2.65;;
52554;SDS011;38455;52.710;6.502;2022-12-29T15:51:36;14.48;;;3.53;;
52554;SDS011;38455;52.710;6.502;2022-12-29T15:54:03;19.77;;;4.15;;
52554;SDS011;38455;52.710;6.502;2022-12-29T15:56:30;7.45;;;2.45;;
52554;SDS011;38455;52.710;6.502;2022-12-29T15:58:57;12.63;;;3.08;;
52554;SDS011;38455;52.710;6.502;2022-12-29T16:01:24;13.05;;;3.35;;
52554;SDS011;38455;52.710;6.502;2022-12-29T16:03:52;10.48;;;2.70;;
52554;SDS011;38455;52.710;6.502;2022-12-29T16:06:25;11.23;;;3.75;;
52554;SDS011;38455;52.710;6.502;2022-12-29T16:14:13;11.40;;;2.20;;
52554;SDS011;38455;52.710;6.502;2022-12-29T16:16:42;17.88;;;3.15;;
52554;SDS011;38455;52.710;6.502;2022-12-29T16:19:24;8.85;;;1.98;;
52554;SDS011;38455;52.710;6.502;2022-12-29T16:21:51;8.15;;;1.88;;
52554;SDS011;38455;52.710;6.502;2022-12-29T16:24:20;10.07;;;2.60;;
52554;SDS011;38455;52.710;6.502;2022-12-29T16:27:02;8.05;;;2.78;;
52554;SDS011;38455;52.710;6.502;2022-12-29T16:29:40;6.45;;;1.88;;
52554;SDS011;38455;52.710;6.502;2022-12-29T16:37:43;10.80;;;2.17;;
52554;SDS011;38455;52.710;6.502;2022-12-29T16:40:29;5.85;;;1.70;;
52554;SDS011;38455;52.710;6.502;2022-12-29T16:42:59;6.57;;;1.77;;
52554;SDS011;38455;52.710;6.502;2022-12-29T16:50:39;7.50;;;1.73;;
52554;SDS011;38455;52.710;6.502;2022-12-29T16:53:16;5.22;;;2.10;;
52554;SDS011;38455;52.710;6.502;2022-12-29T16:55:49;11.65;;;2.40;;
52554;SDS011;38455;52.710;6.502;2022-12-29T16:58:26;8.05;;;2.20;;
52554;SDS011;38455;52.710;6.502;2022-12-29T17:00:56;9.30;;;2.38;;
52554;SDS011;38455;52.710;6.502;2022-12-29T17:03:30;6.78;;;2.17;;
52554;SDS011;38455;52.710;6.502;2022-12-29T17:06:05;7.50;;;3.08;;
52554;SDS011;38455;52.710;6.502;2022-12-29T17:08:41;11.10;;;2.60;;
52554;SDS011;38455;52.710;6.502;2022-12-29T17:17:08;11.57;;;3.78;;
52554;SDS011;38455;52.710;6.502;2022-12-29T17:19:36;11.18;;;3.45;;
52554;SDS011;38455;52.710;6.502;2022-12-29T17:22:04;12.05;;;4.00;;
52554;SDS011;38455;52.710;6.502;2022-12-29T17:24:38;8.90;;;3.25;;
52554;SDS011;38455;52.710;6.502;2022-12-29T17:27:04;7.00;;;3.83;;
52554;SDS011;38455;52.710;6.502;2022-12-29T17:29:33;14.90;;;3.58;;
52554;SDS011;38455;52.710;6.502;2022-12-29T17:32:03;13.77;;;5.00;;
52554;SDS011;38455;52.710;6.502;2022-12-29T17:34:32;10.15;;;3.97;;
52554;SDS011;38455;52.710;6.502;2022-12-29T17:36:58;12.93;;;3.55;;
52554;SDS011;38455;52.710;6.502;2022-12-29T17:39:23;10.98;;;3.97;;
52554;SDS011;38455;52.710;6.502;2022-12-29T17:41:49;19.65;;;5.35;;
52554;SDS011;38455;52.710;6.502;2022-12-29T17:44:15;11.70;;;4.22;;
52554;SDS011;38455;52.710;6.502;2022-12-29T17:46:43;9.82;;;3.10;;
52554;SDS011;38455;52.710;6.502;2022-12-29T17:49:14;7.70;;;1.80;;
52554;SDS011;38455;52.710;6.502;2022-12-29T17:51:41;8.88;;;1.98;;
52554;SDS011;38455;52.710;6.502;2022-12-29T17:56:44;5.15;;;1.98;;
52554;SDS011;38455;52.710;6.502;2022-12-29T17:59:12;10.68;;;1.83;;
52554;SDS011;38455;52.710;6.502;2022-12-29T18:01:39;7.57;;;2.00;;
52554;SDS011;38455;52.710;6.502;2022-12-29T18:04:05;8.68;;;2.63;;
52554;SDS011;38455;52.710;6.502;2022-12-29T18:06:31;8.65;;;2.45;;
52554;SDS011;38455;52.710;6.502;2022-12-29T18:08:57;7.78;;;2.65;;
52554;SDS011;38455;52.710;6.502;2022-12-29T18:11:25;6.10;;;2.85;;
52554;SDS011;38455;52.710;6.502;2022-12-29T18:13:52;8.45;;;3.67;;
52554;SDS011;38455;52.710;6.502;2022-12-29T18:16:18;9.38;;;3.20;;